Time;durP1;ratioP1;P1;durP2;ratioP2;P2;SDS_P1;SDS_P2;PMS_P1;PMS_P2;Temp;Humidity;BMP_temperature;BMP_pressure;BME280_temperature;BME280_humidity;BME280_pressure;Samples;Min_cycle;Max_cycle;Signal;HPM_P1;HPM_P2
2022/10/28 00:00:55;;;;;;;25.37;12.23;;;13.10;99.90;;;;;;5093962;28;20458;-75
2022/10/28 00:03:22;;;;;;;16.50;10.93;;;13.10;99.90;;;;;;5091722;28;20501;-76
2022/10/28 00:05:50;;;;;;;17.23;11.20;;;13.10;99.90;;;;;;5092040;28;20447;-76
2022/10/28 00:08:17;;;;;;;17.73;11.40;;;13.10;99.90;;;;;;5104193;28;20417;-75
2022/10/28 00:10:43;;;;;;;19.67;10.70;;;13.00;99.90;;;;;;5106061;28;20460;-76
2022/10/28 00:13:10;;;;;;;22.07;11.67;;;13.00;99.90;;;;;;5091695;28;20976;-75
2022/10/28 00:15:37;;;;;;;22.80;12.40;;;13.00;99.90;;;;;;5108150;28;20819;-76
2022/10/28 00:18:03;;;;;;;18.47;12.30;;;12.90;99.90;;;;;;5111902;28;20482;-76
2022/10/28 00:20:31;;;;;;;17.17;11.60;;;12.90;99.90;;;;;;5091116;28;20452;-75
2022/10/28 00:22:59;;;;;;;22.43;12.80;;;12.90;99.90;;;;;;5091655;28;20513;-76
2022/10/28 00:25:26;;;;;;;19.77;12.40;;;12.90;99.90;;;;;;5091521;28;20480;-76
2022/10/28 00:27:52;;;;;;;26.40;12.97;;;12.90;99.90;;;;;;5091769;28;20451;-76
2022/10/28 00:30:19;;;;;;;21.77;11.07;;;12.90;99.90;;;;;;5091950;28;20462;-75
2022/10/28 00:32:46;;;;;;;20.83;11.23;;;12.90;99.90;;;;;;5112004;28;20522;-75
2022/10/28 00:35:12;;;;;;;20.70;12.83;;;12.80;99.90;;;;;;5125311;28;20445;-76
2022/10/28 00:37:39;;;;;;;18.60;12.57;;;12.80;99.90;;;;;;5132855;27;20488;-76
2022/10/28 00:40:08;;;;;;;26.23;12.57;;;12.80;99.90;;;;;;5135777;27;20455;-76
2022/10/28 00:42:35;;;;;;;22.03;11.40;;;12.80;99.90;;;;;;5105179;27;20889;-75
2022/10/28 00:45:03;;;;;;;20.10;11.50;;;12.80;99.90;;;;;;5110525;28;20446;-76
2022/10/28 00:47:42;;;;;;;17.90;11.73;;;12.80;99.90;;;;;;5095588;28;20968;-75
2022/10/28 00:50:39;;;;;;;20.17;11.13;;;12.90;99.90;;;;;;5095703;28;20443;-75
2022/10/28 00:53:10;;;;;;;18.93;11.67;;;12.90;99.90;;;;;;5094851;28;20483;-75
2022/10/28 00:55:38;;;;;;;21.63;11.57;;;12.90;99.90;;;;;;5098561;28;20454;-75
2022/10/28 00:58:08;;;;;;;20.93;11.47;;;12.90;99.90;;;;;;5115944;28;20481;-75
2022/10/28 01:00:35;;;;;;;19.80;12.63;;;12.80;99.90;;;;;;5112660;28;20511;-75
2022/10/28 01:03:01;;;;;;;27.40;10.80;;;12.80;99.90;;;;;;5113187;28;20477;-75
2022/10/28 01:05:31;;;;;;;18.30;11.10;;;12.80;99.90;;;;;;5115514;28;20449;-75
2022/10/28 01:07:59;;;;;;;21.60;12.00;;;12.80;99.90;;;;;;5104989;28;20504;-75
2022/10/28 01:10:52;;;;;;;17.67;11.37;;;12.80;99.90;;;;;;5099832;28;20447;-75
2022/10/28 01:13:30;;;;;;;24.27;12.20;;;12.70;99.90;;;;;;5115400;28;20531;-75
2022/10/28 01:16:01;;;;;;;32.23;13.40;;;12.70;99.90;;;;;;5115183;28;20874;-75
2022/10/28 01:18:37;;;;;;;16.80;12.50;;;12.70;99.90;;;;;;5115732;28;20894;-75
2022/10/28 01:21:43;;;;;;;18.40;11.90;;;12.70;99.90;;;;;;5109392;28;20439;-75
2022/10/28 01:24:19;;;;;;;21.93;11.23;;;12.60;99.90;;;;;;5095163;28;20447;-75
2022/10/28 01:27:21;;;;;;;21.13;11.83;;;12.60;99.90;;;;;;5094943;28;20502;-76
2022/10/28 01:30:06;;;;;;;20.87;11.90;;;12.60;99.90;;;;;;5094833;28;20443;-75
2022/10/28 01:32:52;;;;;;;18.93;12.20;;;12.60;99.90;;;;;;5094143;28;20485;-75
2022/10/28 01:35:24;;;;;;;19.23;11.53;;;12.60;99.90;;;;;;5093001;27;20459;-75
2022/10/28 01:38:01;;;;;;;20.63;12.80;;;12.60;99.90;;;;;;5107635;28;20481;-76
2022/10/28 01:40:34;;;;;;;20.53;11.77;;;12.60;99.90;;;;;;5096398;27;20467;-75
2022/10/28 01:43:08;;;;;;;30.90;12.90;;;12.70;99.90;;;;;;5094165;28;20475;-75
2022/10/28 01:45:40;;;;;;;23.20;12.50;;;12.70;99.90;;;;;;5094173;28;20453;-75
2022/10/28 01:48:12;;;;;;;18.77;12.53;;;12.70;99.90;;;;;;5094784;28;20499;-75
2022/10/28 01:50:45;;;;;;;27.93;12.30;;;12.70;99.90;;;;;;5092959;28;20920;-75
2022/10/28 01:53:17;;;;;;;17.97;12.90;;;12.70;99.90;;;;;;5094254;28;20470;-75
2022/10/28 01:55:49;;;;;;;19.63;12.83;;;12.80;99.90;;;;;;5094524;28;20504;-75
2022/10/28 01:58:21;;;;;;;20.77;11.90;;;12.80;99.90;;;;;;5094284;28;20471;-75
2022/10/28 02:00:49;;;;;;;18.60;12.33;;;12.80;99.90;;;;;;5093735;28;20450;-76
2022/10/28 02:03:17;;;;;;;18.53;11.53;;;12.80;99.90;;;;;;5093716;28;20471;-75
2022/10/28 02:05:45;;;;;;;35.93;13.33;;;12.80;99.90;;;;;;5094160;28;20447;-75
2022/10/28 02:08:27;;;;;;;23.63;12.40;;;12.80;99.90;;;;;;5094123;28;20459;-75
2022/10/28 02:11:06;;;;;;;18.23;12.67;;;12.80;99.90;;;;;;5097947;28;20454;-75
2022/10/28 02:13:46;;;;;;;17.73;11.60;;;12.80;99.90;;;;;;5112893;28;21002;-75
2022/10/28 02:16:18;;;;;;;21.07;13.67;;;12.80;99.90;;;;;;5114062;28;21003;-75
2022/10/28 02:18:53;;;;;;;20.20;11.73;;;12.80;99.90;;;;;;5114028;28;20485;-75
2022/10/28 02:21:28;;;;;;;17.20;11.57;;;12.80;99.90;;;;;;5113012;28;20453;-75
2022/10/28 02:24:01;;;;;;;24.73;13.00;;;12.80;99.90;;;;;;5093902;28;20939;-75
2022/10/28 02:26:34;;;;;;;26.53;13.40;;;12.80;99.90;;;;;;5094060;28;20442;-75
2022/10/28 02:29:06;;;;;;;28.63;13.67;;;12.80;99.90;;;;;;5093931;28;20515;-75
2022/10/28 02:31:37;;;;;;;22.70;12.77;;;12.80;99.90;;;;;;5099984;28;20459;-75
2022/10/28 02:34:09;;;;;;;24.17;13.70;;;12.80;99.90;;;;;;5104919;27;20449;-75
2022/10/28 02:36:39;;;;;;;19.60;13.03;;;12.90;99.90;;;;;;5134405;27;20453;-75
2022/10/28 02:39:07;;;;;;;22.10;12.87;;;12.90;99.90;;;;;;5132374;27;21002;-75
2022/10/28 02:41:40;;;;;;;23.90;14.17;;;12.90;99.90;;;;;;5098981;28;20516;-75
2022/10/28 02:44:09;;;;;;;25.63;14.30;;;13.00;99.90;;;;;;5093596;28;20551;-75
2022/10/28 02:46:39;;;;;;;20.20;13.37;;;13.00;99.90;;;;;;5093452;28;20452;-75
2022/10/28 02:49:11;;;;;;;28.50;14.57;;;13.10;99.90;;;;;;5093174;28;20852;-75
2022/10/28 02:51:41;;;;;;;24.10;13.77;;;13.20;99.90;;;;;;5098765;28;20451;-76
2022/10/28 02:54:10;;;;;;;26.33;12.23;;;13.20;99.90;;;;;;5093223;28;20945;-75
2022/10/28 02:56:40;;;;;;;28.97;13.60;;;13.20;99.90;;;;;;5102273;28;20462;-75
2022/10/28 02:59:10;;;;;;;22.53;14.07;;;13.30;99.90;;;;;;5113513;28;20456;-76
2022/10/28 03:01:37;;;;;;;24.20;13.73;;;13.30;99.90;;;;;;5102656;27;20482;-75
2022/10/28 03:04:04;;;;;;;20.37;13.30;;;13.30;99.90;;;;;;5113735;28;20443;-75
2022/10/28 03:06:32;;;;;;;24.27;12.80;;;13.30;99.90;;;;;;5113623;27;20474;-75
2022/10/28 03:08:59;;;;;;;27.43;14.10;;;13.30;99.90;;;;;;5112941;28;20449;-75
2022/10/28 03:11:25;;;;;;;34.27;14.43;;;13.30;99.90;;;;;;5106297;28;20445;-75
2022/10/28 03:13:52;;;;;;;24.03;13.83;;;13.30;99.90;;;;;;5092799;28;20476;-75
2022/10/28 03:16:19;;;;;;;28.10;13.57;;;13.30;99.90;;;;;;5092760;28;20458;-76
2022/10/28 03:18:45;;;;;;;27.33;13.80;;;13.30;99.90;;;;;;5092810;28;20532;-75
2022/10/28 03:21:12;;;;;;;22.57;13.47;;;13.30;99.90;;;;;;5095735;28;20472;-76
2022/10/28 03:23:40;;;;;;;23.90;14.07;;;13.30;99.90;;;;;;5094475;28;20532;-75
2022/10/28 03:26:07;;;;;;;30.40;13.33;;;13.30;99.90;;;;;;5092638;28;20815;-76
2022/10/28 03:28:33;;;;;;;20.20;13.13;;;13.30;99.90;;;;;;5092636;28;20889;-76
2022/10/28 03:31:00;;;;;;;28.40;12.80;;;13.40;99.90;;;;;;5093432;28;20459;-76
2022/10/28 03:33:27;;;;;;;26.00;13.50;;;13.40;99.90;;;;;;5096361;28;21015;-76
2022/10/28 03:35:53;;;;;;;22.17;12.83;;;13.40;99.90;;;;;;5120218;27;20870;-75
2022/10/28 03:38:20;;;;;;;20.83;12.10;;;13.40;99.90;;;;;;5095713;28;20486;-76
2022/10/28 03:40:49;;;;;;;26.60;12.47;;;13.40;99.90;;;;;;5097390;28;20454;-76
2022/10/28 03:43:16;;;;;;;32.17;13.30;;;13.50;99.90;;;;;;5111767;28;21015;-75
2022/10/28 03:45:42;;;;;;;23.20;13.30;;;13.50;99.90;;;;;;5112724;28;20455;-75
2022/10/28 03:48:09;;;;;;;20.53;13.17;;;13.50;99.90;;;;;;5112679;28;20447;-75
2022/10/28 03:50:36;;;;;;;29.13;13.50;;;13.60;99.90;;;;;;5094299;28;21021;-76
2022/10/28 03:53:02;;;;;;;18.90;12.53;;;13.60;99.90;;;;;;5109631;28;20473;-75
2022/10/28 03:55:29;;;;;;;21.93;13.60;;;13.60;99.90;;;;;;5112709;28;20441;-75
2022/10/28 03:58:00;;;;;;;25.10;13.73;;;13.60;99.90;;;;;;5111970;28;20984;-75
2022/10/28 04:00:27;;;;;;;23.83;13.30;;;13.60;99.90;;;;;;5095665;28;20469;-75
2022/10/28 04:02:54;;;;;;;18.67;13.20;;;13.60;99.90;;;;;;5092107;28;20481;-75
2022/10/28 04:05:21;;;;;;;22.30;13.50;;;13.60;99.90;;;;;;5091905;28;20451;-75
2022/10/28 04:07:48;;;;;;;23.60;13.87;;;13.50;99.90;;;;;;5091811;28;21080;-75
2022/10/28 04:10:14;;;;;;;35.97;14.30;;;13.50;99.90;;;;;;5104103;28;20460;-75
2022/10/28 04:12:41;;;;;;;26.33;13.10;;;13.50;99.90;;;;;;5105845;28;20482;-75
2022/10/28 04:15:09;;;;;;;26.67;12.40;;;13.50;99.90;;;;;;5111681;28;20451;-75
2022/10/28 04:17:36;;;;;;;26.77;12.40;;;13.50;99.90;;;;;;5101749;28;20459;-75
2022/10/28 04:20:03;;;;;;;25.57;12.10;;;13.60;99.90;;;;;;5103363;28;20486;-76
2022/10/28 04:22:30;;;;;;;24.47;13.43;;;13.50;99.90;;;;;;5110880;28;20519;-76
2022/10/28 04:24:56;;;;;;;21.10;12.47;;;13.50;99.90;;;;;;5103675;28;20988;-76
2022/10/28 04:27:23;;;;;;;20.47;13.20;;;13.50;99.90;;;;;;5099726;28;20469;-76
2022/10/28 04:29:50;;;;;;;22.07;12.77;;;13.50;99.90;;;;;;5100905;28;20442;-75
2022/10/28 04:32:18;;;;;;;21.23;12.47;;;13.50;99.90;;;;;;5095287;28;20472;-76
2022/10/28 04:34:44;;;;;;;23.60;13.10;;;13.50;99.90;;;;;;5106121;27;20468;-75
2022/10/28 04:37:11;;;;;;;29.10;12.93;;;13.60;99.90;;;;;;5094139;28;21173;-75
2022/10/28 04:39:38;;;;;;;23.67;11.77;;;13.40;99.90;;;;;;5092263;28;20512;-74
2022/10/28 04:42:04;;;;;;;26.23;13.40;;;13.40;99.90;;;;;;5097182;28;20535;-74
2022/10/28 04:44:31;;;;;;;28.37;13.77;;;13.40;99.90;;;;;;5099968;28;20442;-74
2022/10/28 04:46:58;;;;;;;20.33;12.90;;;13.30;99.90;;;;;;5107515;28;20457;-75
2022/10/28 04:49:26;;;;;;;23.30;13.00;;;13.30;99.90;;;;;;5101371;28;20532;-76
2022/10/28 04:51:52;;;;;;;25.43;13.47;;;13.30;99.90;;;;;;5103323;28;20475;-76
2022/10/28 04:54:19;;;;;;;21.90;13.20;;;13.30;99.90;;;;;;5092323;28;20488;-76
2022/10/28 04:56:46;;;;;;;25.97;12.80;;;13.30;99.90;;;;;;5094368;28;20454;-76
2022/10/28 04:59:12;;;;;;;18.53;11.97;;;13.30;99.90;;;;;;5098405;28;20477;-76
2022/10/28 05:01:39;;;;;;;27.90;13.47;;;13.20;99.90;;;;;;5094588;28;20458;-77
2022/10/28 05:04:06;;;;;;;16.87;12.33;;;13.20;99.90;;;;;;5093589;28;20508;-76
2022/10/28 05:06:34;;;;;;;32.30;13.70;;;13.20;99.90;;;;;;5094676;28;20461;-76
2022/10/28 05:09:00;;;;;;;21.63;12.97;;;13.20;99.90;;;;;;5090058;28;20451;-76
2022/10/28 05:11:27;;;;;;;22.53;13.10;;;13.20;99.90;;;;;;5099752;28;20450;-76
2022/10/28 05:13:54;;;;;;;21.83;13.40;;;13.20;99.90;;;;;;5108434;28;20457;-76
2022/10/28 05:16:21;;;;;;;16.20;12.33;;;13.20;99.90;;;;;;5107715;28;20469;-76
2022/10/28 05:18:47;;;;;;;24.67;12.90;;;13.10;99.90;;;;;;5100558;28;20470;-76
2022/10/28 05:21:14;;;;;;;21.30;13.73;;;13.10;99.90;;;;;;5093041;28;20459;-76
2022/10/28 05:23:42;;;;;;;26.20;13.33;;;13.10;99.90;;;;;;5106076;28;20482;-76
2022/10/28 05:26:09;;;;;;;23.87;13.03;;;13.00;99.90;;;;;;5102382;28;20499;-76
2022/10/28 05:28:36;;;;;;;25.77;12.63;;;13.00;99.90;;;;;;5108142;28;20457;-76
2022/10/28 05:31:02;;;;;;;19.13;12.00;;;12.90;99.90;;;;;;5100581;28;20457;-76
2022/10/28 05:33:29;;;;;;;21.83;12.03;;;12.90;99.90;;;;;;5110317;28;20470;-75
2022/10/28 05:35:58;;;;;;;17.63;11.40;;;12.90;99.90;;;;;;5111088;27;20457;-75
2022/10/28 05:38:25;;;;;;;26.97;12.87;;;12.80;99.90;;;;;;5105417;27;20473;-75
2022/10/28 05:40:53;;;;;;;25.00;12.30;;;12.80;99.90;;;;;;5097858;28;20554;-75
2022/10/28 05:43:19;;;;;;;23.23;12.10;;;12.80;99.90;;;;;;5107506;28;20472;-75
2022/10/28 05:45:52;;;;;;;16.10;10.70;;;12.70;99.90;;;;;;5106159;28;20446;-75
2022/10/28 05:48:18;;;;;;;21.50;12.20;;;12.70;99.90;;;;;;5104305;28;20860;-75
2022/10/28 05:50:45;;;;;;;17.23;12.03;;;12.60;99.90;;;;;;5101283;28;20450;-75
2022/10/28 05:53:12;;;;;;;21.10;12.90;;;12.60;99.90;;;;;;5105007;28;20806;-75
2022/10/28 05:55:38;;;;;;;24.50;11.53;;;12.60;99.90;;;;;;5110105;28;20461;-75
2022/10/28 05:58:06;;;;;;;25.67;12.40;;;12.60;99.90;;;;;;5102638;28;20512;-75
2022/10/28 06:00:33;;;;;;;18.03;12.37;;;12.60;99.90;;;;;;5097282;28;20476;-76
2022/10/28 06:03:05;;;;;;;18.10;12.63;;;12.50;99.90;;;;;;5104495;28;20473;-77
2022/10/28 06:05:32;;;;;;;23.73;12.47;;;12.50;99.90;;;;;;5102716;28;20459;-77
2022/10/28 06:07:59;;;;;;;18.73;11.90;;;12.50;99.90;;;;;;5102340;28;20451;-76
2022/10/28 06:10:25;;;;;;;23.87;12.00;;;12.50;99.90;;;;;;5098657;28;20450;-77
2022/10/28 06:12:54;;;;;;;19.47;12.60;;;12.40;99.90;;;;;;5102676;28;20477;-75
2022/10/28 06:15:22;;;;;;;25.00;13.80;;;12.40;99.90;;;;;;5100670;28;20864;-77
2022/10/28 06:17:49;;;;;;;23.40;12.60;;;12.40;99.90;;;;;;5101915;28;20473;-77
2022/10/28 06:20:16;;;;;;;21.47;13.70;;;12.40;99.90;;;;;;5095942;28;20493;-77
2022/10/28 06:22:47;;;;;;;21.93;12.57;;;12.40;99.90;;;;;;5095761;28;20528;-77
2022/10/28 06:25:14;;;;;;;19.80;12.17;;;12.40;99.90;;;;;;5096328;28;20537;-77
2022/10/28 06:27:41;;;;;;;22.47;12.47;;;12.40;99.90;;;;;;5103924;28;20869;-77
2022/10/28 06:30:09;;;;;;;20.60;12.70;;;12.40;99.90;;;;;;5098849;28;20450;-76
2022/10/28 06:32:37;;;;;;;23.80;12.50;;;12.40;99.90;;;;;;5109225;28;20473;-78
2022/10/28 06:35:04;;;;;;;28.80;13.10;;;12.40;99.90;;;;;;5107353;28;20461;-77
2022/10/28 06:37:31;;;;;;;27.53;14.27;;;12.40;99.90;;;;;;5108276;28;20836;-77
2022/10/28 06:39:59;;;;;;;21.60;12.30;;;12.40;99.90;;;;;;5108936;28;20482;-79
2022/10/28 06:42:25;;;;;;;34.33;13.50;;;12.50;99.90;;;;;;5107024;28;20523;-78
2022/10/28 06:44:53;;;;;;;32.70;13.30;;;12.60;99.90;;;;;;5109107;28;20445;-78
2022/10/28 06:47:20;;;;;;;23.57;13.03;;;12.70;99.90;;;;;;5108864;28;20456;-77
2022/10/28 06:49:48;;;;;;;18.90;12.87;;;12.90;99.90;;;;;;5109286;28;20453;-77
2022/10/28 06:52:15;;;;;;;20.30;11.60;;;13.10;99.90;;;;;;5108777;28;20527;-79
2022/10/28 06:54:42;;;;;;;19.27;11.20;;;13.50;99.90;;;;;;5108768;28;20446;-77
2022/10/28 06:57:09;;;;;;;27.67;10.60;;;13.80;99.90;;;;;;5108882;28;20499;-77
2022/10/28 06:59:36;;;;;;;23.17;9.57;;;14.00;99.90;;;;;;5108802;28;20481;-77
2022/10/28 07:02:02;;;;;;;17.17;10.50;;;14.20;99.90;;;;;;5108263;28;21050;-77
2022/10/28 07:04:29;;;;;;;15.03;10.03;;;14.10;99.90;;;;;;5107416;28;20454;-79
2022/10/28 07:06:58;;;;;;;24.00;11.90;;;14.20;99.90;;;;;;5108545;28;20446;-76
2022/10/28 07:09:25;;;;;;;22.03;10.73;;;14.30;99.90;;;;;;5108518;28;21194;-78
2022/10/28 07:11:51;;;;;;;21.10;10.07;;;14.30;99.90;;;;;;5107609;28;20559;-76
2022/10/28 07:14:18;;;;;;;21.77;11.17;;;14.30;99.90;;;;;;5108716;28;21585;-77
2022/10/28 07:16:45;;;;;;;20.23;10.73;;;14.40;99.90;;;;;;5108188;28;20816;-78
2022/10/28 07:19:11;;;;;;;26.30;11.47;;;14.40;99.90;;;;;;5108858;28;20446;-78
2022/10/28 07:21:38;;;;;;;33.97;11.13;;;14.40;99.90;;;;;;5107506;28;20461;-78
2022/10/28 07:24:06;;;;;;;19.93;10.80;;;14.40;99.90;;;;;;5108204;28;20447;-78
2022/10/28 07:26:33;;;;;;;28.97;12.43;;;14.40;99.90;;;;;;5107235;28;20453;-77
2022/10/28 07:29:00;;;;;;;29.37;11.60;;;14.60;99.90;;;;;;5108729;28;21098;-77
2022/10/28 07:31:27;;;;;;;18.50;9.70;;;14.50;99.90;;;;;;5107784;28;20595;-77
2022/10/28 07:33:54;;;;;;;15.23;10.63;;;14.60;99.90;;;;;;5107900;27;20554;-77
2022/10/28 07:36:21;;;;;;;27.67;14.33;;;14.60;99.90;;;;;;5107142;28;20798;-77
2022/10/28 07:38:50;;;;;;;21.33;11.33;;;14.70;99.90;;;;;;5107810;28;20488;-78
2022/10/28 07:41:19;;;;;;;24.50;9.87;;;14.70;99.90;;;;;;5107412;28;20494;-77
2022/10/28 07:43:46;;;;;;;24.60;12.90;;;14.70;99.90;;;;;;5107146;28;20470;-77
2022/10/28 07:46:13;;;;;;;19.10;9.97;;;14.70;99.90;;;;;;5107233;28;20475;-78
2022/10/28 07:48:40;;;;;;;11.67;8.70;;;14.70;99.90;;;;;;5106821;28;21206;-77
2022/10/28 07:51:09;;;;;;;19.93;9.07;;;14.60;99.90;;;;;;5107843;28;21772;-77
2022/10/28 07:53:35;;;;;;;18.30;10.80;;;14.70;99.90;;;;;;5105978;28;20477;-78
2022/10/28 07:56:04;;;;;;;23.73;10.97;;;14.60;99.90;;;;;;5107815;28;20978;-78
2022/10/28 07:58:32;;;;;;;17.70;11.00;;;14.60;99.90;;;;;;5107025;28;20454;-78
2022/10/28 08:01:02;;;;;;;18.07;9.33;;;14.60;99.90;;;;;;5107819;28;20821;-78
2022/10/28 08:03:29;;;;;;;20.43;9.00;;;14.60;99.90;;;;;;5107140;28;20907;-76
2022/10/28 08:06:00;;;;;;;22.30;10.00;;;14.70;99.90;;;;;;5107581;28;20959;-77
2022/10/28 08:08:27;;;;;;;17.30;9.83;;;14.70;99.90;;;;;;5108015;28;20533;-76
2022/10/28 08:10:53;;;;;;;18.73;10.93;;;14.80;99.90;;;;;;5106663;28;21114;-76
2022/10/28 08:13:20;;;;;;;17.47;9.50;;;14.90;99.90;;;;;;5106258;28;20441;-77
2022/10/28 08:15:53;;;;;;;14.63;10.20;;;14.90;99.90;;;;;;5107073;28;20451;-76
2022/10/28 08:18:20;;;;;;;25.57;9.53;;;15.00;99.90;;;;;;5107335;28;20532;-77
2022/10/28 08:20:47;;;;;;;28.23;9.60;;;15.10;99.90;;;;;;5106629;28;20865;-76
2022/10/28 08:23:14;;;;;;;20.17;10.07;;;15.00;99.90;;;;;;5107026;28;20466;-77
2022/10/28 08:25:47;;;;;;;17.37;9.37;;;15.00;99.90;;;;;;5106900;28;20450;-77
2022/10/28 08:28:14;;;;;;;14.07;8.80;;;15.10;99.90;;;;;;5107834;28;20474;-76
2022/10/28 08:30:41;;;;;;;18.90;10.20;;;15.00;99.90;;;;;;5106840;28;20443;-76
2022/10/28 08:33:09;;;;;;;20.57;10.47;;;15.00;99.90;;;;;;5107005;28;20833;-77
2022/10/28 08:35:35;;;;;;;25.03;11.00;;;15.00;99.90;;;;;;5106276;28;20455;-77
2022/10/28 08:38:02;;;;;;;17.00;9.70;;;15.10;99.90;;;;;;5107122;28;20507;-77
2022/10/28 08:40:35;;;;;;;23.27;10.03;;;15.20;99.90;;;;;;5106852;28;20486;-76
2022/10/28 08:43:14;;;;;;;17.00;9.23;;;15.50;99.90;;;;;;5107308;28;20474;-76
2022/10/28 08:45:46;;;;;;;24.53;9.23;;;16.00;99.90;;;;;;5106290;28;20499;-76
2022/10/28 08:48:21;;;;;;;15.93;9.00;;;16.30;99.90;;;;;;5107207;28;20864;-76
2022/10/28 08:50:51;;;;;;;12.33;8.40;;;16.60;99.90;;;;;;5106268;28;20818;-76
2022/10/28 08:53:23;;;;;;;18.47;9.03;;;16.70;99.90;;;;;;5106683;28;20498;-76
2022/10/28 08:55:52;;;;;;;16.23;9.53;;;16.60;99.90;;;;;;5106343;28;20979;-77
2022/10/28 08:58:23;;;;;;;12.30;8.50;;;16.60;99.90;;;;;;5107548;28;20424;-76
2022/10/28 09:00:53;;;;;;;18.80;9.57;;;16.50;99.90;;;;;;5108391;28;20460;-75
2022/10/28 09:03:24;;;;;;;16.70;9.33;;;16.50;99.90;;;;;;5109076;28;20517;-77
2022/10/28 09:05:57;;;;;;;17.80;9.53;;;16.50;99.90;;;;;;5111239;28;20421;-77
2022/10/28 09:08:27;;;;;;;13.87;8.23;;;16.60;99.90;;;;;;5111065;28;20447;-77
2022/10/28 09:11:08;;;;;;;20.57;9.17;;;16.60;99.90;;;;;;5110090;28;20425;-77
2022/10/28 09:13:49;;;;;;;26.70;9.63;;;16.60;99.90;;;;;;5110581;28;20579;-77
2022/10/28 09:16:29;;;;;;;20.43;9.23;;;16.70;99.90;;;;;;5111270;28;20447;-77
2022/10/28 09:19:00;;;;;;;26.77;10.20;;;16.70;99.90;;;;;;5110541;28;20970;-77
2022/10/28 09:21:32;;;;;;;20.17;9.33;;;16.70;99.90;;;;;;5110919;28;20579;-76
2022/10/28 09:24:03;;;;;;;24.77;10.73;;;16.70;99.90;;;;;;5109766;28;20458;-77
2022/10/28 09:26:40;;;;;;;29.90;10.07;;;16.70;99.90;;;;;;5110698;28;20450;-76
2022/10/28 09:29:31;;;;;;;23.63;9.07;;;16.70;99.90;;;;;;5110576;28;20454;-77
2022/10/28 09:32:03;;;;;;;12.80;8.97;;;16.70;99.90;;;;;;5110131;28;20452;-76
2022/10/28 09:34:39;;;;;;;18.23;9.70;;;16.70;99.90;;;;;;5110010;28;20421;-76
2022/10/28 09:37:13;;;;;;;18.00;9.60;;;16.70;99.90;;;;;;5110525;28;20541;-76
2022/10/28 09:39:43;;;;;;;16.90;9.33;;;16.80;99.90;;;;;;5110215;28;20448;-76
2022/10/28 09:42:17;;;;;;;28.17;10.40;;;16.90;99.90;;;;;;5110009;28;20489;-76
2022/10/28 09:44:49;;;;;;;18.57;10.17;;;16.90;99.90;;;;;;5109935;28;21015;-76
2022/10/28 09:47:19;;;;;;;34.83;9.73;;;16.90;99.90;;;;;;5108139;28;20424;-76
2022/10/28 09:49:49;;;;;;;12.90;8.90;;;17.00;99.90;;;;;;5109685;28;20449;-76
2022/10/28 09:52:21;;;;;;;17.97;8.20;;;17.10;99.90;;;;;;5109033;28;20482;-76
2022/10/28 09:54:51;;;;;;;18.87;8.70;;;17.20;99.90;;;;;;5109479;28;20952;-76
2022/10/28 09:57:18;;;;;;;20.17;9.03;;;17.40;99.90;;;;;;5109753;28;20559;-76
2022/10/28 09:59:45;;;;;;;16.80;8.67;;;17.40;99.90;;;;;;5109684;28;20969;-76
2022/10/28 10:02:28;;;;;;;25.83;8.77;;;17.40;99.90;;;;;;5109628;28;20449;-76
2022/10/28 10:04:58;;;;;;;21.73;8.43;;;17.50;99.90;;;;;;5109337;28;20939;-76
2022/10/28 10:07:38;;;;;;;23.47;9.47;;;17.50;99.90;;;;;;5110075;28;20446;-76
2022/10/28 10:10:11;;;;;;;22.30;9.17;;;17.50;99.90;;;;;;5109596;28;20906;-75
2022/10/28 10:12:38;;;;;;;20.47;8.30;;;17.50;99.90;;;;;;5108637;28;20469;-75
2022/10/28 10:15:07;;;;;;;20.37;8.60;;;17.60;99.90;;;;;;5108595;28;20421;-75
2022/10/28 10:17:40;;;;;;;13.97;7.90;;;17.70;99.90;;;;;;5110543;28;20454;-75
2022/10/28 10:20:10;;;;;;;16.97;8.57;;;17.80;99.90;;;;;;5109153;28;20497;-75
2022/10/28 10:22:39;;;;;;;12.97;8.07;;;17.90;99.90;;;;;;5107898;28;20449;-75
2022/10/28 10:25:28;;;;;;;17.27;8.50;;;17.90;99.90;;;;;;5108963;28;20474;-75
2022/10/28 10:27:58;;;;;;;14.40;8.13;;;18.10;99.90;;;;;;5108838;28;20482;-77
2022/10/28 10:30:29;;;;;;;22.67;8.57;;;18.10;99.90;;;;;;5108161;28;20466;-76
2022/10/28 10:32:56;;;;;;;24.23;8.80;;;18.20;99.90;;;;;;5108297;28;20449;-76
2022/10/28 10:35:27;;;;;;;17.40;8.07;;;18.30;99.90;;;;;;5109209;27;21084;-76
2022/10/28 10:37:57;;;;;;;23.43;9.00;;;18.40;99.90;;;;;;5108567;28;20451;-76
2022/10/28 10:40:26;;;;;;;15.10;8.20;;;18.40;99.90;;;;;;5109254;28;20425;-76
2022/10/28 10:42:53;;;;;;;18.13;8.07;;;18.70;99.90;;;;;;5109009;28;21007;-77
2022/10/28 10:45:23;;;;;;;21.17;8.30;;;18.80;99.90;;;;;;5107203;28;20975;-76
2022/10/28 10:48:06;;;;;;;19.53;7.97;;;19.10;99.90;;;;;;5108641;27;20436;-76
2022/10/28 10:50:36;;;;;;;17.73;7.90;;;19.20;99.90;;;;;;5109136;28;20454;-75
2022/10/28 10:53:03;;;;;;;32.63;9.10;;;19.40;99.90;;;;;;5109014;28;20470;-76
2022/10/28 10:55:36;;;;;;;20.23;8.50;;;19.40;99.90;;;;;;5108651;28;20413;-77
2022/10/28 10:58:05;;;;;;;12.57;7.40;;;19.40;99.90;;;;;;5108745;28;20425;-75
2022/10/28 11:00:36;;;;;;;21.97;8.23;;;19.40;99.90;;;;;;5108057;28;20502;-76
2022/10/28 11:03:05;;;;;;;22.23;10.17;;;19.40;99.90;;;;;;5109260;28;20506;-75
2022/10/28 11:05:34;;;;;;;16.27;7.80;;;19.50;99.90;;;;;;5109107;28;20445;-75
2022/10/28 11:08:03;;;;;;;17.10;8.30;;;19.60;99.90;;;;;;5108909;28;20417;-75
2022/10/28 11:10:32;;;;;;;18.80;6.87;;;19.60;99.90;;;;;;5107578;28;21218;-76
2022/10/28 11:13:01;;;;;;;12.40;6.60;;;19.60;99.90;;;;;;5107740;28;20449;-74
2022/10/28 11:15:30;;;;;;;14.67;7.60;;;19.60;99.90;;;;;;5107885;28;20445;-76
2022/10/28 11:17:59;;;;;;;14.53;6.80;;;19.60;99.90;;;;;;5108475;28;20422;-74
2022/10/28 11:20:29;;;;;;;13.83;6.43;;;19.70;99.90;;;;;;5108263;28;20429;-76
2022/10/28 11:23:14;;;;;;;13.83;6.93;;;19.70;99.90;;;;;;5108366;28;20509;-75
2022/10/28 11:25:44;;;;;;;21.23;6.90;;;19.60;99.90;;;;;;5107683;28;20508;-76
2022/10/28 11:28:38;;;;;;;15.07;7.07;;;19.50;99.90;;;;;;5108459;28;20450;-77
2022/10/28 11:31:31;;;;;;;14.50;7.00;;;19.50;99.90;;;;;;5108425;28;20454;-76
2022/10/28 11:34:13;;;;;;;15.67;7.50;;;19.50;99.90;;;;;;5107852;27;20539;-76
2022/10/28 11:36:50;;;;;;;16.63;6.23;;;19.60;99.90;;;;;;5108064;28;20425;-75
2022/10/28 11:39:28;;;;;;;12.70;6.07;;;19.70;99.90;;;;;;5108123;28;20429;-77
2022/10/28 11:42:05;;;;;;;14.37;6.53;;;19.80;99.90;;;;;;5107733;28;20545;-77
2022/10/28 11:44:44;;;;;;;22.17;6.40;;;19.90;99.90;;;;;;5107826;28;20425;-78
2022/10/28 11:47:35;;;;;;;13.37;6.50;;;20.10;99.90;;;;;;5106993;28;20975;-76
2022/10/28 11:50:17;;;;;;;15.83;6.07;;;20.40;99.90;;;;;;5107400;28;20916;-77
2022/10/28 11:53:01;;;;;;;16.83;5.40;;;20.90;99.90;;;;;;5107565;28;20481;-77
2022/10/28 11:55:35;;;;;;;13.07;6.10;;;21.40;99.90;;;;;;5108437;28;20457;-76
2022/10/28 11:58:13;;;;;;;13.93;5.97;;;21.70;99.90;;;;;;5107024;28;20445;-76
2022/10/28 12:01:09;;;;;;;18.73;6.37;;;21.80;99.90;;;;;;5107024;28;20494;-77
2022/10/28 12:03:50;;;;;;;17.87;6.00;;;21.70;99.90;;;;;;5105548;28;20463;-77
2022/10/28 12:06:23;;;;;;;17.13;6.60;;;21.70;99.90;;;;;;5107581;28;20450;-76
2022/10/28 12:09:09;;;;;;;16.67;6.47;;;21.60;99.90;;;;;;5107799;28;20450;-76
2022/10/28 12:11:52;;;;;;;10.50;5.77;;;21.40;99.90;;;;;;5105776;28;21773;-76
2022/10/28 12:14:27;;;;;;;24.77;5.93;;;21.30;99.90;;;;;;5106995;28;20447;-75
2022/10/28 12:17:02;;;;;;;16.10;6.37;;;21.00;99.90;;;;;;5107476;28;20439;-76
2022/10/28 12:19:33;;;;;;;14.40;6.83;;;20.90;99.90;;;;;;5107052;28;20447;-76
2022/10/28 12:22:06;;;;;;;19.43;6.20;;;20.80;99.90;;;;;;5107000;28;20493;-76
2022/10/28 12:24:37;;;;;;;12.33;5.77;;;20.80;99.90;;;;;;5106761;28;20515;-77
2022/10/28 12:27:13;;;;;;;16.83;5.97;;;21.00;99.90;;;;;;5107453;28;20864;-76
2022/10/28 12:29:44;;;;;;;18.20;6.20;;;21.20;99.90;;;;;;5107272;28;20479;-77
2022/10/28 12:32:13;;;;;;;19.87;5.67;;;21.40;99.90;;;;;;5107107;28;20471;-77
2022/10/28 12:34:45;;;;;;;14.03;6.10;;;21.50;99.90;;;;;;5105451;28;20439;-77
2022/10/28 12:37:17;;;;;;;20.80;5.67;;;21.70;99.90;;;;;;5106917;28;20455;-78
2022/10/28 12:39:51;;;;;;;26.87;6.10;;;21.70;99.90;;;;;;5106675;28;20447;-78
2022/10/28 12:42:24;;;;;;;13.30;5.43;;;21.80;99.90;;;;;;5106625;28;20503;-78
2022/10/28 12:44:53;;;;;;;17.93;5.00;;;21.80;99.90;;;;;;5107402;28;20457;-78
2022/10/28 12:47:28;;;;;;;15.43;5.40;;;21.80;99.90;;;;;;5106721;28;20508;-78